Time;durP1;ratioP1;P1;durP2;ratioP2;P2;SDS_P1;SDS_P2;PMS_P1;PMS_P2;Temp;Humidity;BMP_temperature;BMP_pressure;BME280_temperature;BME280_humidity;BME280_pressure;Samples;Min_cycle;Max_cycle;Signal;HPM_P1;HPM_P2
2021/01/22 00:02:10;;;;;;;2.15;1.90;;;9.40;84.50;;;;;;5035372;28;20125;-76
2021/01/22 00:04:36;;;;;;;1.70;1.45;;;9.40;84.70;;;;;;5035389;28;20471;-76
2021/01/22 00:07:01;;;;;;;2.45;1.40;;;9.50;84.70;;;;;;5035058;28;20124;-76
2021/01/22 00:09:27;;;;;;;2.08;1.60;;;9.50;84.70;;;;;;5035239;28;20504;-76
2021/01/22 00:11:53;;;;;;;2.53;1.40;;;9.40;84.70;;;;;;5035130;28;20567;-76
2021/01/22 00:14:19;;;;;;;2.08;1.05;;;9.50;84.80;;;;;;5034841;28;20053;-76
2021/01/22 00:16:45;;;;;;;1.20;1.10;;;9.30;84.70;;;;;;5035179;28;20064;-76
2021/01/22 00:19:10;;;;;;;1.83;1.30;;;9.40;84.60;;;;;;5044547;28;20080;-76
2021/01/22 00:21:37;;;;;;;1.65;1.42;;;9.40;84.60;;;;;;5054608;28;20037;-76
2021/01/22 00:24:04;;;;;;;2.47;1.63;;;9.20;84.60;;;;;;5054512;28;20492;-76
2021/01/22 00:26:29;;;;;;;1.27;1.17;;;9.30;84.70;;;;;;5054659;28;20037;-76
2021/01/22 00:28:55;;;;;;;2.45;1.30;;;9.10;84.70;;;;;;5054308;28;20523;-76
2021/01/22 00:31:21;;;;;;;3.17;1.63;;;9.20;84.80;;;;;;5054545;28;20037;-76
2021/01/22 00:33:47;;;;;;;2.05;1.55;;;9.20;84.90;;;;;;5054585;28;20040;-76
2021/01/22 00:36:13;;;;;;;2.97;1.20;;;9.20;85.20;;;;;;5054448;28;20111;-76
2021/01/22 00:38:38;;;;;;;2.08;1.27;;;9.10;85.30;;;;;;5054605;28;20128;-76
2021/01/22 00:41:04;;;;;;;1.67;0.90;;;9.20;85.30;;;;;;5054590;28;20029;-76
2021/01/22 00:43:30;;;;;;;1.27;0.90;;;9.20;85.30;;;;;;5054222;28;20040;-76
2021/01/22 00:45:56;;;;;;;1.50;0.82;;;9.30;85.30;;;;;;5054255;28;20029;-76
2021/01/22 00:48:22;;;;;;;1.52;1.20;;;9.30;85.40;;;;;;5054588;28;20110;-76
2021/01/22 00:50:48;;;;;;;2.10;1.40;;;9.20;85.30;;;;;;5054308;28;20468;-76
2021/01/22 00:53:14;;;;;;;1.58;1.25;;;9.20;85.20;;;;;;5054415;28;20033;-76
2021/01/22 00:55:40;;;;;;;1.95;1.60;;;9.30;85.20;;;;;;5053748;28;20069;-76
2021/01/22 00:58:06;;;;;;;3.15;1.67;;;9.40;85.20;;;;;;5054218;28;20060;-76
2021/01/22 01:00:32;;;;;;;2.33;1.10;;;9.30;85.10;;;;;;5053696;28;20075;-76
2021/01/22 01:02:58;;;;;;;1.67;1.23;;;9.30;85.20;;;;;;5054058;28;20040;-76
2021/01/22 01:05:23;;;;;;;2.10;0.95;;;9.20;85.10;;;;;;5053403;28;20049;-76
2021/01/22 01:07:49;;;;;;;2.03;1.30;;;9.40;85.20;;;;;;5053901;28;20052;-76
2021/01/22 01:10:15;;;;;;;1.63;1.00;;;9.20;85.00;;;;;;5053623;28;20400;-76
2021/01/22 01:12:41;;;;;;;2.40;1.00;;;9.30;85.10;;;;;;5054080;28;20040;-76
2021/01/22 01:15:08;;;;;;;2.72;0.98;;;9.40;85.10;;;;;;5054094;28;20391;-76
2021/01/22 01:17:34;;;;;;;2.03;1.55;;;9.10;84.90;;;;;;5053853;28;20488;-76
2021/01/22 01:20:00;;;;;;;1.08;0.98;;;9.20;85.00;;;;;;5053732;28;20045;-76
2021/01/22 01:25:49;;;;;;;3.80;2.63;;;9.20;85.00;;;;;;5050829;28;20396;-76
2021/01/22 01:28:15;;;;;;;4.60;2.13;;;9.00;85.00;;;;;;5053600;28;20040;-76
2021/01/22 01:30:41;;;;;;;1.77;1.48;;;9.30;85.20;;;;;;5053911;28;20039;-76
2021/01/22 01:33:06;;;;;;;2.10;1.90;;;9.20;85.10;;;;;;5053588;28;20128;-76
2021/01/22 01:35:32;;;;;;;2.08;1.42;;;9.20;85.10;;;;;;5053297;28;20431;-76
2021/01/22 01:37:58;;;;;;;3.08;2.03;;;9.30;85.20;;;;;;5053716;28;20523;-76
2021/01/22 01:40:24;;;;;;;4.97;2.67;;;9.20;85.70;;;;;;5053184;28;20391;-76
2021/01/22 01:42:50;;;;;;;4.47;2.67;;;9.30;85.20;;;;;;5053920;28;20534;-76
2021/01/22 01:45:18;;;;;;;2.88;1.40;;;9.20;85.20;;;;;;5053365;28;20131;-76
2021/01/22 01:47:44;;;;;;;1.52;1.13;;;9.20;85.20;;;;;;5053502;28;20091;-76
2021/01/22 01:50:11;;;;;;;1.77;1.00;;;9.20;85.10;;;;;;5053341;28;20558;-76
2021/01/22 01:52:38;;;;;;;1.05;0.93;;;9.10;85.10;;;;;;5053498;28;20037;-76
2021/01/22 01:55:06;;;;;;;1.45;0.90;;;9.20;85.20;;;;;;5053090;28;20124;-76
2021/01/22 01:57:32;;;;;;;1.17;0.98;;;9.20;85.20;;;;;;5053534;28;20063;-76
2021/01/22 01:59:59;;;;;;;1.02;0.85;;;9.00;85.20;;;;;;5052050;28;20036;-76
2021/01/22 02:02:25;;;;;;;1.23;1.00;;;9.20;85.40;;;;;;5053374;28;20109;-76
2021/01/22 02:04:52;;;;;;;1.83;0.82;;;9.30;85.40;;;;;;5052958;28;20048;-76
2021/01/22 02:07:17;;;;;;;3.97;1.15;;;9.00;85.20;;;;;;5053193;28;20047;-76
2021/01/22 02:09:44;;;;;;;1.05;0.98;;;9.00;85.30;;;;;;5053035;28;20036;-76
2021/01/22 02:12:10;;;;;;;1.33;0.80;;;9.30;85.60;;;;;;5053559;28;20056;-76
2021/01/22 02:14:37;;;;;;;2.03;0.63;;;9.20;85.50;;;;;;5053254;28;20400;-76
2021/01/22 02:17:04;;;;;;;0.70;0.68;;;9.10;85.50;;;;;;5053428;28;20048;-76
2021/01/22 02:20:12;;;;;;;0.88;0.65;;;9.10;85.50;;;;;;5052962;28;20056;-76
2021/01/22 02:22:38;;;;;;;1.55;0.50;;;9.10;85.40;;;;;;5045380;28;20033;-75
2021/01/22 02:25:08;;;;;;;1.23;0.70;;;9.20;85.50;;;;;;5053049;28;20128;-76
2021/01/22 02:27:36;;;;;;;0.98;0.35;;;9.20;85.50;;;;;;5051889;28;20037;-76
2021/01/22 02:30:05;;;;;;;0.70;0.40;;;9.10;85.50;;;;;;5051922;28;20404;-76
2021/01/22 02:32:32;;;;;;;0.63;0.50;;;9.00;85.50;;;;;;5053124;28;20036;-76
2021/01/22 02:35:07;;;;;;;1.58;0.57;;;9.10;85.50;;;;;;5053321;28;20041;-76
2021/01/22 02:37:35;;;;;;;1.85;0.50;;;9.10;85.50;;;;;;5052734;28;20033;-76
2021/01/22 02:40:05;;;;;;;2.35;0.60;;;9.20;85.40;;;;;;5052967;28;20527;-76
2021/01/22 02:42:32;;;;;;;0.70;0.40;;;9.30;85.50;;;;;;5055651;28;20049;-76
2021/01/22 02:44:57;;;;;;;2.97;0.60;;;9.10;85.30;;;;;;5056910;28;20088;-76
2021/01/22 02:47:27;;;;;;;0.55;0.32;;;9.00;85.40;;;;;;5056470;28;20547;-76
2021/01/22 02:49:53;;;;;;;0.50;0.40;;;8.90;85.30;;;;;;5056285;28;20132;-76
2021/01/22 02:52:19;;;;;;;0.93;0.30;;;9.10;85.40;;;;;;5056140;28;20056;-76
2021/01/22 02:54:50;;;;;;;0.32;0.22;;;9.00;85.20;;;;;;5056589;28;20041;-76
2021/01/22 02:57:36;;;;;;;1.40;0.40;;;8.90;85.00;;;;;;5056263;28;20037;-76
2021/01/22 03:00:10;;;;;;;0.38;0.20;;;9.00;84.90;;;;;;5056686;28;20032;-76
2021/01/22 03:02:45;;;;;;;0.75;0.30;;;8.70;84.50;;;;;;5056681;28;20071;-76
2021/01/22 03:05:16;;;;;;;0.43;0.22;;;8.70;84.40;;;;;;5056587;28;20037;-76
2021/01/22 03:07:48;;;;;;;1.90;0.90;;;8.60;84.30;;;;;;5056569;28;20037;-76
2021/01/22 03:10:17;;;;;;;2.28;0.88;;;8.40;84.20;;;;;;5056341;28;20048;-76
2021/01/22 03:12:47;;;;;;;1.45;1.20;;;8.40;84.20;;;;;;5056080;28;20041;-76
2021/01/22 03:15:17;;;;;;;2.70;1.27;;;8.20;84.10;;;;;;5056636;28;20037;-76
2021/01/22 03:17:44;;;;;;;2.40;1.30;;;8.20;84.20;;;;;;5056078;28;20047;-76
2021/01/22 03:20:21;;;;;;;1.88;1.60;;;8.10;84.40;;;;;;5056120;28;20052;-76
2021/01/22 03:22:46;;;;;;;1.80;1.27;;;7.90;84.50;;;;;;5056231;28;20495;-76
2021/01/22 03:25:13;;;;;;;2.65;1.25;;;8.10;84.70;;;;;;5055940;28;20067;-76
2021/01/22 03:27:40;;;;;;;1.00;0.68;;;8.00;84.80;;;;;;5055939;28;20044;-76
2021/01/22 03:30:08;;;;;;;1.17;0.60;;;8.00;84.90;;;;;;5055945;28;20492;-76
2021/01/22 03:32:34;;;;;;;1.00;0.68;;;8.00;85.00;;;;;;5055692;28;20055;-76
2021/01/22 03:35:00;;;;;;;1.58;1.10;;;8.10;85.20;;;;;;5055704;28;20567;-76
2021/01/22 03:37:26;;;;;;;2.05;1.00;;;8.40;85.40;;;;;;5053719;28;20052;-76
2021/01/22 03:39:51;;;;;;;1.45;1.30;;;8.40;85.40;;;;;;5053664;28;20037;-76
2021/01/22 03:42:17;;;;;;;2.58;1.50;;;8.30;85.40;;;;;;5053657;28;20429;-76
2021/01/22 03:44:43;;;;;;;2.38;1.90;;;8.40;85.50;;;;;;5053589;28;20056;-76
2021/01/22 03:47:09;;;;;;;2.10;1.65;;;8.40;85.50;;;;;;5053702;28;20388;-76
2021/01/22 03:49:35;;;;;;;2.63;1.80;;;8.40;85.60;;;;;;5053468;28;20064;-76
2021/01/22 03:52:01;;;;;;;3.22;1.90;;;8.30;85.50;;;;;;5054733;28;20377;-76
2021/01/22 03:54:27;;;;;;;2.72;1.92;;;8.40;85.50;;;;;;5053473;28;20068;-76
2021/01/22 03:56:53;;;;;;;3.08;1.73;;;8.60;85.60;;;;;;5055140;28;20534;-76
2021/01/22 03:59:19;;;;;;;3.80;2.35;;;8.40;85.50;;;;;;5055432;28;20120;-76
2021/01/22 04:01:45;;;;;;;2.15;1.90;;;8.30;85.40;;;;;;5055430;28;20120;-76
2021/01/22 04:04:11;;;;;;;4.25;3.50;;;8.40;85.40;;;;;;5055118;28;20518;-76
2021/01/22 04:06:37;;;;;;;5.32;3.95;;;8.30;85.40;;;;;;5054937;28;20512;-76
2021/01/22 04:09:06;;;;;;;4.60;4.15;;;8.20;85.30;;;;;;5055293;28;20373;-76
2021/01/22 04:11:32;;;;;;;7.38;5.72;;;8.40;85.40;;;;;;5054020;28;20029;-76
2021/01/22 04:13:58;;;;;;;8.77;7.88;;;8.30;85.30;;;;;;5053092;28;20045;-76
2021/01/22 04:16:24;;;;;;;9.40;7.40;;;8.40;85.30;;;;;;5052777;28;20687;-76
2021/01/22 04:18:49;;;;;;;11.20;9.90;;;8.30;85.20;;;;;;5052660;28;20586;-76
2021/01/22 04:21:15;;;;;;;9.27;8.30;;;8.50;85.30;;;;;;5052806;28;20041;-76
2021/01/22 04:23:41;;;;;;;11.55;10.05;;;8.50;85.30;;;;;;5053025;28;20059;-76
2021/01/22 04:26:07;;;;;;;13.52;10.63;;;8.50;85.20;;;;;;5053347;28;20037;-76
2021/01/22 04:28:33;;;;;;;11.63;9.32;;;8.30;85.20;;;;;;5054407;28;20452;-76
2021/01/22 04:30:59;;;;;;;12.75;9.45;;;8.50;85.30;;;;;;5055184;28;20035;-76
2021/01/22 04:33:25;;;;;;;7.95;7.15;;;8.60;85.40;;;;;;5052903;28;20060;-76
2021/01/22 04:35:50;;;;;;;7.18;6.10;;;8.30;85.20;;;;;;5054235;28;20385;-76
2021/01/22 04:38:16;;;;;;;6.10;5.50;;;8.40;85.20;;;;;;5054683;28;20040;-76
2021/01/22 04:40:43;;;;;;;7.90;5.47;;;8.30;85.20;;;;;;5054639;28;20086;-77
2021/01/22 04:43:09;;;;;;;7.22;4.95;;;8.30;85.10;;;;;;5054396;28;20081;-76
2021/01/22 04:45:35;;;;;;;5.82;5.20;;;8.30;85.20;;;;;;5054678;28;20082;-76
2021/01/22 04:48:04;;;;;;;8.10;3.97;;;8.30;85.10;;;;;;5054562;28;20090;-76
2021/01/22 04:50:31;;;;;;;5.57;4.03;;;8.20;85.00;;;;;;5052546;28;20558;-77
2021/01/22 04:53:01;;;;;;;5.25;4.28;;;8.40;85.20;;;;;;5052149;28;20070;-77
2021/01/22 04:55:30;;;;;;;8.40;5.53;;;8.30;85.30;;;;;;5054021;28;20095;-77
2021/01/22 04:57:57;;;;;;;7.30;5.25;;;8.30;85.30;;;;;;5054230;28;20194;-76
2021/01/22 05:00:25;;;;;;;5.78;4.78;;;8.20;85.20;;;;;;5054421;28;20128;-77
2021/01/22 05:02:55;;;;;;;6.30;5.40;;;8.30;85.30;;;;;;5054289;28;20033;-77
2021/01/22 05:05:21;;;;;;;6.70;5.32;;;8.30;85.30;;;;;;5053725;28;20051;-76
2021/01/22 05:07:47;;;;;;;7.65;6.13;;;8.40;85.30;;;;;;5054404;28;20033;-77
2021/01/22 05:10:13;;;;;;;9.13;6.43;;;8.20;85.20;;;;;;5054300;28;20094;-77
2021/01/22 05:12:40;;;;;;;8.10;6.47;;;8.30;85.30;;;;;;5054251;28;20045;-77
2021/01/22 05:15:12;;;;;;;7.57;6.15;;;8.40;85.40;;;;;;5053911;28;20055;-77
2021/01/22 05:17:52;;;;;;;7.72;6.22;;;8.50;85.50;;;;;;5053990;28;20119;-76
2021/01/22 05:20:35;;;;;;;6.85;6.15;;;8.30;85.30;;;;;;5038472;28;20083;-77
2021/01/22 05:23:06;;;;;;;6.72;4.88;;;8.30;85.30;;;;;;5054551;28;20045;-77
2021/01/22 05:25:32;;;;;;;7.30;5.05;;;8.30;85.20;;;;;;5054223;28;20496;-77
2021/01/22 05:27:59;;;;;;;8.35;4.90;;;8.20;85.10;;;;;;5054294;28;20094;-77
2021/01/22 05:30:28;;;;;;;5.60;4.05;;;8.10;85.10;;;;;;5054190;28;20044;-77
2021/01/22 05:33:17;;;;;;;6.45;3.83;;;8.30;85.10;;;;;;5054137;28;20041;-77
2021/01/22 05:35:43;;;;;;;4.45;2.92;;;8.20;85.00;;;;;;5046630;28;20037;-77
2021/01/22 05:38:09;;;;;;;6.22;3.80;;;8.30;85.00;;;;;;5053686;28;20036;-76
2021/01/22 05:40:35;;;;;;;3.78;2.72;;;8.30;85.00;;;;;;5054037;28;20503;-76
2021/01/22 05:43:01;;;;;;;3.97;2.70;;;8.10;84.90;;;;;;5053899;28;20037;-76
2021/01/22 05:45:45;;;;;;;4.60;2.30;;;8.20;85.00;;;;;;5053919;28;20053;-76
2021/01/22 05:48:26;;;;;;;4.30;2.78;;;8.30;85.10;;;;;;5054194;28;20044;-77
2021/01/22 05:50:57;;;;;;;6.30;3.35;;;8.20;85.00;;;;;;5053840;28;20048;-77
2021/01/22 05:53:24;;;;;;;6.55;3.20;;;8.00;85.00;;;;;;5052950;28;20060;-75
2021/01/22 05:56:11;;;;;;;6.32;3.30;;;8.10;85.10;;;;;;5053615;28;20041;-75
2021/01/22 05:58:39;;;;;;;5.47;2.90;;;8.20;85.30;;;;;;5053591;28;20040;-75
2021/01/22 06:01:09;;;;;;;4.80;2.60;;;8.00;85.20;;;;;;5036453;28;20050;-76
2021/01/22 06:03:37;;;;;;;5.55;2.42;;;8.10;85.30;;;;;;5032523;28;20065;-76
2021/01/22 06:06:03;;;;;;;5.95;1.92;;;8.30;85.40;;;;;;5052839;28;20037;-76
2021/01/22 06:08:29;;;;;;;4.28;1.70;;;8.20;85.40;;;;;;5053135;28;20058;-76
2021/01/22 06:10:55;;;;;;;4.43;1.88;;;8.10;85.90;;;;;;5046667;28;20551;-76
2021/01/22 06:13:25;;;;;;;4.55;1.88;;;8.10;85.30;;;;;;5035069;28;20120;-75
2021/01/22 06:15:54;;;;;;;5.53;2.60;;;8.10;85.20;;;;;;5033072;28;20052;-76
2021/01/22 06:18:32;;;;;;;3.42;2.30;;;8.20;85.10;;;;;;5037397;28;20037;-76
2021/01/22 06:21:12;;;;;;;7.32;3.05;;;8.10;85.00;;;;;;5037384;28;20076;-76
2021/01/22 06:23:39;;;;;;;3.20;2.03;;;8.10;84.70;;;;;;5036563;28;20496;-77
2021/01/22 06:26:06;;;;;;;3.72;1.92;;;8.20;84.70;;;;;;5037176;28;20052;-77
2021/01/22 06:28:33;;;;;;;3.67;2.00;;;7.90;84.40;;;;;;5036837;28;20042;-76
2021/01/22 06:30:59;;;;;;;3.80;2.30;;;7.80;84.30;;;;;;5036007;28;20060;-77
2021/01/22 06:33:27;;;;;;;5.22;2.30;;;8.00;84.40;;;;;;5035514;28;20131;-75
2021/01/22 06:35:53;;;;;;;2.42;2.00;;;7.70;84.30;;;;;;5035236;28;20056;-77
2021/01/22 06:38:23;;;;;;;6.70;4.18;;;7.60;84.20;;;;;;5035087;28;20042;-74
2021/01/22 06:40:52;;;;;;;5.57;4.18;;;7.70;84.10;;;;;;5035299;28;20096;-74
2021/01/22 06:43:19;;;;;;;8.02;4.25;;;7.60;83.80;;;;;;5035101;28;20044;-74
2021/01/22 06:45:44;;;;;;;6.88;4.75;;;7.40;83.70;;;;;;5036083;28;20485;-74
2021/01/22 06:48:11;;;;;;;6.82;4.82;;;7.50;83.70;;;;;;5036068;28;20061;-78
2021/01/22 06:50:38;;;;;;;4.95;4.10;;;7.20;83.60;;;;;;5037652;28;20440;-77
2021/01/22 06:53:15;;;;;;;8.95;4.00;;;7.30;83.60;;;;;;5048934;28;20496;-75
2021/01/22 06:55:51;;;;;;;6.43;3.88;;;7.20;83.60;;;;;;5053365;28;20064;-77
2021/01/22 06:58:26;;;;;;;4.03;3.35;;;7.30;83.80;;;;;;5056982;28;20035;-80
2021/01/22 07:00:53;;;;;;;4.82;3.00;;;7.10;83.90;;;;;;5056916;28;20037;-77
2021/01/22 07:03:37;;;;;;;7.05;3.60;;;7.10;83.90;;;;;;5056673;28;20041;-76
2021/01/22 07:06:08;;;;;;;6.47;3.50;;;7.20;84.10;;;;;;5056548;28;20032;-78
2021/01/22 07:08:56;;;;;;;6.97;4.47;;;7.20;84.20;;;;;;5038868;28;20033;-76
2021/01/22 07:11:23;;;;;;;7.03;4.25;;;7.10;84.20;;;;;;5038675;28;20043;-77
2021/01/22 07:13:50;;;;;;;8.93;4.10;;;7.00;84.00;;;;;;5056396;28;20131;-77
2021/01/22 07:16:16;;;;;;;6.15;3.40;;;7.10;84.10;;;;;;5056616;28;20037;-77
2021/01/22 07:18:43;;;;;;;7.00;5.60;;;7.00;83.90;;;;;;5056141;28;20083;-78
2021/01/22 07:21:44;;;;;;;12.02;7.57;;;7.10;83.90;;;;;;5055875;28;20116;-78
2021/01/22 07:24:17;;;;;;;9.27;5.72;;;7.10;83.90;;;;;;5044518;28;20055;-78
2021/01/22 07:26:47;;;;;;;8.73;4.57;;;6.80;83.60;;;;;;5056292;28;20029;-78
2021/01/22 07:29:18;;;;;;;5.28;4.30;;;6.80;83.50;;;;;;5055872;28;20059;-78
2021/01/22 07:31:57;;;;;;;8.65;4.35;;;6.70;83.30;;;;;;5055785;28;20033;-79
2021/01/22 07:34:51;;;;;;;5.05;3.33;;;6.90;83.30;;;;;;5055233;28;20119;-81
2021/01/22 07:37:20;;;;;;;6.25;3.35;;;6.80;83.30;;;;;;5055692;28;20556;-80
2021/01/22 07:39:47;;;;;;;5.90;3.88;;;6.80;83.50;;;;;;5055695;28;20025;-80
2021/01/22 07:42:15;;;;;;;6.07;4.20;;;6.60;83.20;;;;;;5050008;28;20051;-80
2021/01/22 07:44:43;;;;;;;7.72;4.43;;;6.60;83.30;;;;;;5054012;28;20049;-79
2021/01/22 07:47:10;;;;;;;6.10;4.50;;;6.70;83.40;;;;;;5053221;28;20047;-80
2021/01/22 07:49:51;;;;;;;6.28;4.18;;;6.80;83.40;;;;;;5053460;28;20071;-79
2021/01/22 07:52:17;;;;;;;9.27;4.70;;;6.80;83.40;;;;;;5034286;28;20037;-80
2021/01/22 07:54:43;;;;;;;7.80;3.72;;;6.70;83.30;;;;;;5043756;28;20098;-80
2021/01/22 07:57:19;;;;;;;6.53;3.17;;;6.80;83.40;;;;;;5055164;28;20088;-80
2021/01/22 07:59:46;;;;;;;8.85;5.20;;;6.60;83.40;;;;;;5055567;28;20048;-81
2021/01/22 08:02:17;;;;;;;15.63;5.75;;;6.70;83.60;;;;;;5054543;28;20033;-81
2021/01/22 08:04:43;;;;;;;12.18;5.90;;;6.80;83.50;;;;;;5052634;28;20071;-80
2021/01/22 08:07:09;;;;;;;13.80;6.43;;;6.80;83.40;;;;;;5038434;28;20045;-81
2021/01/22 08:09:36;;;;;;;11.00;6.40;;;7.00;83.50;;;;;;5053245;28;20036;-82
2021/01/22 08:12:11;;;;;;;18.38;8.98;;;6.70;83.50;;;;;;5034497;28;20497;-81
2021/01/22 08:14:37;;;;;;;;;;;6.70;83.50;;;;;;5041893;28;20040;-81
2021/01/22 08:17:05;;;;;;;19.20;11.32;;;6.60;83.40;;;;;;5054712;28;19908;-82
2021/01/22 08:19:32;;;;;;;15.60;9.48;;;6.80;83.30;;;;;;5054251;28;20057;-80
2021/01/22 08:21:58;;;;;;;14.68;9.18;;;6.80;83.30;;;;;;5054698;28;20033;-80
2021/01/22 08:24:24;;;;;;;15.88;8.77;;;6.80;83.30;;;;;;5054866;28;20519;-81
2021/01/22 08:27:03;;;;;;;18.65;10.25;;;6.90;83.40;;;;;;5054694;28;20025;-82
2021/01/22 08:29:30;;;;;;;20.23;9.75;;;7.10;83.50;;;;;;5054410;28;20052;-82
2021/01/22 08:31:57;;;;;;;14.95;8.07;;;7.00;83.40;;;;;;5054988;28;20112;-81
2021/01/22 08:34:23;;;;;;;12.30;6.70;;;7.20;83.10;;;;;;5054429;28;20071;-82
2021/01/22 08:36:51;;;;;;;10.70;6.18;;;7.10;82.90;;;;;;5041655;28;20037;-81
2021/01/22 08:39:17;;;;;;;10.23;6.07;;;7.30;83.20;;;;;;5034005;28;20073;-82
2021/01/22 08:41:43;;;;;;;12.27;5.30;;;8.00;83.50;;;;;;5033902;28;20099;-82
2021/01/22 08:44:09;;;;;;;6.85;4.10;;;8.80;83.20;;;;;;5015933;28;20463;-83
2021/01/22 08:46:48;;;;;;;4.72;2.88;;;10.00;82.60;;;;;;5016179;28;20116;-83
2021/01/22 08:49:16;;;;;;;4.97;2.67;;;11.30;81.00;;;;;;5037078;28;20077;-82
2021/01/22 08:51:42;;;;;;;2.33;1.30;;;12.60;78.50;;;;;;5054091;28;20041;-82
2021/01/22 08:54:09;;;;;;;3.97;1.10;;;13.60;74.90;;;;;;5052876;28;20409;-82
2021/01/22 08:56:35;;;;;;;1.38;0.95;;;14.40;71.20;;;;;;5054001;28;20514;-83
2021/01/22 08:59:06;;;;;;;3.00;0.93;;;15.40;69.20;;;;;;5053597;28;20131;-82
2021/01/22 09:01:56;;;;;;;2.40;1.80;;;16.40;66.90;;;;;;5054259;28;20542;-82
2021/01/22 09:04:35;;;;;;;2.20;1.00;;;17.50;65.50;;;;;;5053503;28;20072;-82
2021/01/22 09:07:14;;;;;;;2.67;1.70;;;18.40;63.30;;;;;;5035321;28;20525;-83
2021/01/22 09:09:47;;;;;;;7.55;4.55;;;19.20;61.60;;;;;;5034631;28;20045;-81
2021/01/22 09:12:18;;;;;;;4.85;2.80;;;19.80;60.80;;;;;;5053762;28;20475;-82
2021/01/22 09:14:52;;;;;;;2.20;1.70;;;20.40;59.60;;;;;;5054202;28;20037;-82
2021/01/22 09:17:26;;;;;;;2.78;1.65;;;20.70;57.90;;;;;;5053466;28;20102;-82
2021/01/22 09:20:01;;;;;;;4.30;2.33;;;20.90;57.20;;;;;;5053155;28;20059;-82
2021/01/22 09:22:30;;;;;;;4.22;2.53;;;21.30;56.80;;;;;;5053539;28;20033;-81
2021/01/22 09:24:56;;;;;;;5.32;2.85;;;21.60;56.60;;;;;;5053908;28;20140;-82
2021/01/22 09:27:22;;;;;;;3.83;1.88;;;21.40;56.00;;;;;;5053533;28;20095;-81
2021/01/22 09:29:48;;;;;;;4.65;2.40;;;21.20;55.50;;;;;;5053539;28;20033;-82
2021/01/22 09:32:14;;;;;;;5.07;2.13;;;21.10;55.50;;;;;;5053689;28;20079;-82
2021/01/22 09:34:40;;;;;;;7.30;2.65;;;21.40;55.80;;;;;;5053409;28;20048;-81
2021/01/22 09:37:06;;;;;;;8.20;4.97;;;21.30;55.80;;;;;;5038192;28;20049;-81
2021/01/22 09:39:33;;;;;;;8.60;4.43;;;20.70;55.50;;;;;;5034261;28;20376;-82
2021/01/22 09:41:59;;;;;;;27.63;14.43;;;20.30;56.70;;;;;;5039871;28;20087;-81
2021/01/22 09:44:24;;;;;;;26.08;13.65;;;19.90;57.80;;;;;;5015627;28;20095;-81
2021/01/22 09:46:50;;;;;;;4.78;2.63;;;19.60;58.40;;;;;;5044003;28;20049;-81
2021/01/22 09:49:16;;;;;;;8.55;4.03;;;19.30;59.00;;;;;;5015650;28;20040;-81
2021/01/22 09:51:42;;;;;;;14.48;5.68;;;18.50;60.60;;;;;;5016215;28;20041;-81
2021/01/22 09:54:09;;;;;;;5.28;2.20;;;17.80;62.10;;;;;;5037536;28;20048;-80
2021/01/22 09:56:38;;;;;;;4.97;1.90;;;17.90;63.10;;;;;;5037050;28;20037;-80
2021/01/22 09:59:06;;;;;;;10.63;5.20;;;16.90;64.50;;;;;;5037107;28;20037;-80
2021/01/22 10:01:33;;;;;;;10.95;6.43;;;16.60;65.60;;;;;;5037278;28;20029;-80
2021/01/22 10:03:59;;;;;;;2.38;0.90;;;16.30;66.00;;;;;;5037270;28;20060;-80
2021/01/22 10:06:24;;;;;;;19.90;10.13;;;16.00;66.70;;;;;;5038557;28;20041;-80
2021/01/22 10:08:50;;;;;;;5.57;2.05;;;15.70;68.10;;;;;;5032670;28;20040;-81
2021/01/22 10:11:16;;;;;;;3.22;1.38;;;15.40;68.60;;;;;;5045815;28;20072;-79
2021/01/22 10:13:42;;;;;;;11.57;4.35;;;15.20;68.20;;;;;;5036239;28;20064;-80
2021/01/22 10:16:08;;;;;;;7.70;2.20;;;15.00;68.00;;;;;;5039089;28;20045;-80
2021/01/22 10:18:34;;;;;;;13.07;6.47;;;14.90;68.90;;;;;;5056545;28;20068;-80
2021/01/22 10:21:00;;;;;;;14.73;6.50;;;14.80;69.10;;;;;;5057467;28;20123;-80
2021/01/22 10:23:25;;;;;;;12.77;5.28;;;14.70;68.80;;;;;;5056276;28;20086;-79
2021/01/22 10:25:51;;;;;;;11.23;4.53;;;14.60;68.60;;;;;;5057285;28;20109;-79
2021/01/22 10:28:17;;;;;;;7.15;2.67;;;14.40;68.60;;;;;;5057031;28;20075;-80
2021/01/22 10:30:43;;;;;;;32.85;12.65;;;14.30;68.80;;;;;;5057031;28;20426;-79
2021/01/22 10:33:09;;;;;;;9.32;3.50;;;14.30;68.80;;;;;;5039115;28;20029;-79
2021/01/22 10:35:34;;;;;;;34.85;12.95;;;14.30;68.60;;;;;;5056158;28;20041;-80
2021/01/22 10:38:00;;;;;;;14.68;4.88;;;14.20;68.60;;;;;;5056481;28;20041;-79
2021/01/22 10:40:26;;;;;;;12.27;3.78;;;14.20;68.60;;;;;;5057098;28;20446;-79
2021/01/22 10:42:52;;;;;;;24.17;11.35;;;14.30;68.60;;;;;;5057032;28;20068;-79
2021/01/22 10:45:18;;;;;;;10.40;4.78;;;14.30;68.40;;;;;;5056776;28;20098;-78
2021/01/22 10:47:44;;;;;;;5.72;2.10;;;14.40;68.30;;;;;;5056960;28;20044;-80
2021/01/22 10:50:10;;;;;;;3.40;1.40;;;14.40;68.10;;;;;;5057334;28;20033;-79
2021/01/22 10:52:36;;;;;;;4.68;1.10;;;14.20;67.70;;;;;;5056734;28;20032;-79
2021/01/22 10:55:02;;;;;;;5.28;4.75;;;14.30;68.00;;;;;;5057002;28;20128;-80
2021/01/22 10:57:27;;;;;;;2.85;1.40;;;14.20;67.80;;;;;;5057152;28;20032;-80
2021/01/22 10:59:53;;;;;;;2.05;0.22;;;14.20;67.50;;;;;;5056626;28;20060;-78
2021/01/22 11:02:19;;;;;;;2.70;0.50;;;14.30;67.20;;;;;;5056267;28;20090;-78
2021/01/22 11:04:45;;;;;;;4.38;0.50;;;14.40;67.10;;;;;;5056455;28;20106;-78
2021/01/22 11:07:10;;;;;;;2.50;0.15;;;14.50;66.80;;;;;;5056375;28;20037;-78
2021/01/22 11:09:36;;;;;;;2.13;0.20;;;14.40;66.50;;;;;;5056634;28;20506;-79
2021/01/22 11:12:06;;;;;;;2.80;0.40;;;14.40;66.50;;;;;;5056209;28;20037;-79
2021/01/22 11:14:31;;;;;;;2.70;0.30;;;14.40;66.10;;;;;;5056120;28;20575;-79
2021/01/22 11:16:57;;;;;;;3.50;0.40;;;14.40;66.00;;;;;;5056306;28;20041;-79
2021/01/22 11:19:23;;;;;;;3.00;0.20;;;14.50;66.00;;;;;;5056150;28;20119;-78
2021/01/22 11:21:49;;;;;;;2.13;0.15;;;14.40;65.70;;;;;;5056413;28;20059;-78
2021/01/22 11:24:15;;;;;;;1.48;0.20;;;14.50;65.40;;;;;;5056318;28;20049;-77
2021/01/22 11:26:40;;;;;;;2.00;0.20;;;14.60;65.20;;;;;;5056097;28;20061;-77
2021/01/22 11:29:06;;;;;;;1.85;0.10;;;14.60;65.00;;;;;;5055721;28;20077;-77
2021/01/22 11:31:32;;;;;;;2.33;0.10;;;14.50;65.00;;;;;;5056031;28;20078;-77
2021/01/22 11:33:58;;;;;;;1.60;0.10;;;14.70;65.00;;;;;;5050388;28;20049;-78
2021/01/22 11:36:23;;;;;;;3.17;0.70;;;14.60;65.00;;;;;;5054469;28;20032;-77
2021/01/22 11:38:49;;;;;;;40.30;15.30;;;14.60;65.00;;;;;;5054578;28;20076;-76
2021/01/22 11:41:15;;;;;;;31.50;15.60;;;14.70;64.90;;;;;;5054855;28;20057;-77
2021/01/22 11:43:41;;;;;;;27.83;20.38;;;14.60;64.50;;;;;;5037995;28;20067;-77
2021/01/22 11:46:07;;;;;;;7.38;3.20;;;14.50;64.50;;;;;;5037804;28;20029;-77
2021/01/22 11:48:33;;;;;;;14.55;10.25;;;14.50;64.80;;;;;;5055604;28;20071;-77
2021/01/22 11:50:59;;;;;;;7.45;4.03;;;14.40;64.00;;;;;;5053921;28;20094;-77
2021/01/22 11:53:24;;;;;;;4.40;1.70;;;14.40;64.10;;;;;;5054979;28;20068;-77
2021/01/22 11:55:50;;;;;;;2.35;0.40;;;14.40;64.20;;;;;;5052567;28;20445;-77
2021/01/22 11:58:16;;;;;;;3.28;1.45;;;14.50;64.10;;;;;;5055522;28;20045;-77
2021/01/22 12:00:42;;;;;;;3.63;0.73;;;14.40;64.00;;;;;;5055549;28;20033;-76
2021/01/22 12:03:08;;;;;;;3.92;0.30;;;14.50;64.00;;;;;;5055282;28;20048;-77
2021/01/22 12:05:34;;;;;;;3.13;0.40;;;14.30;63.70;;;;;;5055297;28;20099;-77
2021/01/22 12:07:59;;;;;;;4.03;0.50;;;14.50;63.70;;;;;;5054292;28;20041;-77
2021/01/22 12:10:25;;;;;;;3.40;0.57;;;14.50;63.60;;;;;;5055382;28;20049;-77
2021/01/22 12:12:52;;;;;;;3.50;0.40;;;14.50;63.50;;;;;;5051757;28;20044;-77
2021/01/22 12:15:17;;;;;;;2.60;0.30;;;14.60;63.30;;;;;;5034557;28;20096;-77
2021/01/22 12:17:44;;;;;;;3.13;0.20;;;14.60;63.40;;;;;;5034076;28;20041;-77
2021/01/22 12:20:10;;;;;;;4.32;0.40;;;14.50;63.30;;;;;;5033027;28;20578;-78
2021/01/22 12:22:35;;;;;;;2.88;0.30;;;14.40;63.00;;;;;;5033160;28;20033;-78
2021/01/22 12:25:02;;;;;;;3.85;0.30;;;14.30;63.10;;;;;;5033955;28;20053;-78
2021/01/22 12:27:28;;;;;;;1.88;0.20;;;14.20;63.00;;;;;;5033691;28;20123;-78
2021/01/22 12:29:53;;;;;;;3.40;0.20;;;14.30;63.10;;;;;;5033654;28;20408;-78
2021/01/22 12:32:19;;;;;;;3.63;0.40;;;14.30;63.10;;;;;;5033740;28;20064;-78
2021/01/22 12:34:45;;;;;;;2.15;0.20;;;14.40;62.80;;;;;;5034698;28;20041;-78
2021/01/22 12:37:11;;;;;;;3.95;0.50;;;14.30;62.60;;;;;;5034960;28;20497;-77
2021/01/22 12:39:36;;;;;;;3.25;0.38;;;14.40;62.70;;;;;;5034744;28;20037;-78
2021/01/22 12:42:02;;;;;;;2.95;0.43;;;14.40;62.70;;;;;;5034797;28;20502;-78
2021/01/22 12:44:28;;;;;;;1.23;0.30;;;14.50;62.60;;;;;;5034773;28;20053;-78
2021/01/22 12:46:54;;;;;;;3.55;0.47;;;14.40;62.50;;;;;;5034616;28;20037;-77
2021/01/22 12:49:20;;;;;;;4.13;0.77;;;14.50;62.40;;;;;;5034986;28;20563;-77
2021/01/22 12:51:45;;;;;;;4.90;2.15;;;14.40;62.30;;;;;;5034672;28;20033;-77
2021/01/22 12:54:11;;;;;;;3.75;0.80;;;14.50;62.60;;;;;;5034433;28;20045;-78
2021/01/22 12:56:37;;;;;;;2.75;0.85;;;14.40;62.40;;;;;;5034477;28;20036;-77
2021/01/22 12:59:03;;;;;;;2.38;0.57;;;14.40;62.20;;;;;;5034675;28;20037;-77
2021/01/22 13:01:28;;;;;;;1.45;0.40;;;14.40;62.30;;;;;;5034245;28;20037;-77